Latest Weather Observations for Griffith

IDN60801

Issued at 10:32 am EST Thursday 2 July 2015 (issued every 30 minutes, with the page automatically refreshed every 10 minutes)

About weather observations | Map of weather stations | Latest weather observations for NSW | Other Formats
Station Details ID: 075041 Name: GRIFFITH AIRPORT AWS Lat: -34.25 Lon: 146.07 Height: 134.0 m
Data from the previous 72 hours. | See also: Recent months at Griffith
Date/Time
EST
Temp
°C
App
Temp
°C
Dew
Point
Rel
Hum
%
Delta-T
°C
Wind Press
QNH
hPa
Press
MSL
hPa
Rain
since 9 am
mm
Dir
 
Spd
km/h
Gust
km/h
Spd
kts
Gust
kts
02/10:30am 9.9 4.9 4.7 70 2.3 WNW 20 30 11 16 1025.0 1025.2 0.0
02/10:00am 8.9 4.0 4.3 73 2.0 WNW 19 24 10 13 1025.5 1025.7 0.0
02/09:30am 7.7 3.6 4.5 80 1.4 NW 15 20 8 11 1025.4 1025.6 0.0
02/09:00am 6.2 2.9 4.4 88 0.8 NW 11 17 6 9 1025.5 1025.7 0.2
02/08:30am 5.1 1.7 4.2 94 0.4 NW 11 15 6 8 1025.4 1025.6 0.2
02/08:00am 4.0 0.9 3.7 98 0.1 NW 9 11 5 6 1025.5 1025.7 0.2
02/07:30am 3.9 0.8 3.8 99 0.0 NNW 9 13 5 7 1025.1 1025.3 0.2
02/07:00am 3.2 0.0 3.1 99 0.0 NW 9 11 5 6 1024.9 1025.1 0.2
02/06:30am 4.0 0.6 3.9 99 0.0 NNW 11 13 6 7 1024.6 1024.8 0.2
02/06:00am 4.1 1.6 4.0 99 0.0 NW 6 9 3 5 1024.6 1024.8 0.2
02/05:30am 4.2 1.6 4.1 99 0.0 NW 7 9 4 5 1024.7 1024.9 0.2
02/05:00am 3.6 1.1 3.5 99 0.0 NW 6 7 3 4 1024.9 1025.1 0.2
02/04:30am 3.4 1.2 3.3 99 0.0 W 4 6 2 3 1025.0 1025.2 0.2
02/04:00am 2.6 1.0 2.5 99 0.0 CALM 0 0 0 0 1024.9 1025.1 0.2
02/03:30am 3.2 1.7 3.1 99 0.0 CALM 0 0 0 0 1025.2 1025.4 0.2
02/03:00am 3.3 1.1 3.2 99 0.0 NNW 4 9 2 5 1025.4 1025.6 0.2
02/02:30am 3.4 2.0 3.3 99 0.0 CALM 0 0 0 0 1025.8 1026.0 0.2
02/02:00am 3.6 2.2 3.5 99 0.0 CALM 0 0 0 0 1026.0 1026.2 0.2
02/01:30am 3.4 2.0 3.3 99 0.0 CALM 0 0 0 0 1026.1 1026.3 0.2
02/01:00am 3.4 2.0 3.3 99 0.0 CALM 0 0 0 0 1026.0 1026.2 0.2
02/12:30am 3.6 1.1 3.5 99 0.0 W 6 9 3 5 1026.6 1026.9 0.2
02/12:00am 3.6 2.2 3.5 99 0.0 CALM 0 0 0 0 1026.4 1026.6 0.2
 
Date/Time
EST
Temp
°C
App
Temp
°C
Dew
Point
Rel
Hum
%
Delta-T
°C
Wind Press
QNH
hPa
Press
MSL
hPa
Rain
since 9 am
mm
Dir
 
Spd
km/h
Gust
km/h
Spd
kts
Gust
kts
01/11:30pm 3.4 1.9 3.0 97 0.2 CALM 0 0 0 0 1026.5 1026.7 0.2
01/11:00pm 4.2 2.9 3.9 98 0.1 CALM 0 0 0 0 1026.6 1026.9 0.2
01/10:30pm 4.5 3.1 3.8 95 0.3 CALM 0 0 0 0 1026.6 1026.9 0.2
01/10:00pm 4.7 3.3 3.7 93 0.4 CALM 0 0 0 0 1026.6 1026.9 0.2
01/09:30pm 5.1 3.7 3.6 90 0.6 CALM 0 0 0 0 1027.0 1027.3 0.2
01/09:00pm 5.6 4.2 3.3 85 1.0 CALM 0 0 0 0 1026.8 1027.1 0.2
01/08:30pm 7.2 6.0 4.5 83 1.2 CALM 0 0 0 0 1026.9 1027.2 0.2
01/08:00pm 7.5 5.2 5.0 84 1.1 WSW 6 9 3 5 1027.2 1027.5 0.2
01/07:30pm 7.8 5.9 4.7 81 1.4 W 4 7 2 4 1026.8 1027.1 0.2
01/07:00pm 7.3 5.1 5.3 87 0.9 W 6 9 3 5 1026.8 1027.1 0.2
01/06:30pm 8.0 6.7 4.0 76 1.7 CALM 0 6 0 3 1026.3 1026.5 0.2
01/06:00pm 8.6 7.3 4.0 73 2.0 CALM 0 0 0 0 1026.5 1026.7 0.2
01/05:30pm 9.6 7.1 4.8 72 2.2 SW 7 11 4 6 1026.4 1026.6 0.2
01/05:00pm 10.0 7.4 4.4 68 2.5 W 7 9 4 5 1026.2 1026.4 0.2
01/04:30pm 10.4 6.6 3.9 64 2.9 W 13 17 7 9 1026.6 1026.9 0.2
01/04:00pm 10.7 6.8 3.5 61 3.2 W 13 17 7 9 1026.7 1027.0 0.2
01/03:30pm 11.4 7.9 3.4 58 3.5 SSW 11 13 6 7 1026.7 1027.0 0.0
01/03:00pm 11.7 7.6 4.4 61 3.3 WSW 15 19 8 10 1026.4 1026.6 0.0
01/02:30pm 10.9 7.7 3.2 59 3.4 W 9 13 5 7 1026.5 1026.7 0.0
01/02:00pm 12.1 9.4 3.9 57 3.7 NNW 7 11 4 6 1026.8 1027.1 0.0
01/01:30pm 11.0 8.3 3.5 60 3.3 SW 7 17 4 9 1027.1 1027.4 0.0
01/01:00pm 11.5 8.4 3.5 58 3.5 SW 9 15 5 8 1027.7 1028.0 0.0
01/12:30pm 11.0 6.9 2.3 55 3.8 W 13 19 7 10 1028.2 1028.5 0.0
01/12:00pm 10.4 6.4 2.7 59 3.3 WSW 13 17 7 9 1028.9 1029.2 0.0
01/11:30am 9.5 7.2 4.7 72 2.2 W 6 9 3 5 1029.4 1029.7 0.0
01/11:00am 8.9 7.6 7.8 93 0.5 WNW 4 6 2 3 1029.7 1030.0 0.0
01/10:36am 7.4 6.8 7.4 100 0.0 CALM 0 6 0 3 1029.9 1030.2 0.0
01/10:32am 7.1 6.4 7.1 100 0.0 CALM 0 0 0 0 1029.9 1030.2 0.0
01/10:30am 7.1 6.4 7.1 100 0.0 CALM 0 0 0 0 1029.9 1030.2 0.0
01/10:18am 6.4 5.6 6.4 100 0.0 CALM 0 0 0 0 1030.0 1030.3 0.0
01/10:00am 4.7 3.5 4.7 100 0.0 CALM 0 0 0 0 1030.1 1030.4 0.0
01/09:30am 3.0 1.5 3.0 100 0.0 CALM 0 6 0 3 1029.8 1030.0 0.0
01/09:00am 1.4 -0.4 1.4 100 0.0 CALM 0 0 0 0 1029.8 1030.0 0.2
01/08:30am 0.7 -1.2 0.6 99 0.0 CALM 0 0 0 0 1029.6 1029.8 0.2
01/08:25am 0.4 -1.5 0.3 99 0.0 CALM 0 0 0 0 1029.6 1029.8 0.2
01/08:00am 0.0 -2.0 -0.1 99 0.0 CALM 0 6 0 3 1029.3 1029.5 0.2
01/07:30am -0.4 -2.5 -0.5 99 0.0 CALM 0 0 0 0 1028.8 1029.0 0.2
01/07:00am -0.2 -2.2 -0.3 99 0.0 CALM 0 0 0 0 1028.6 1028.8 0.2
01/06:56am -0.4 -2.5 -0.5 99 0.0 CALM 0 0 0 0 1028.5 1028.7 0.2
01/06:55am -0.4 -2.5 -0.5 99 0.0 CALM 0 0 0 0 1028.5 1028.7 0.2
01/06:53am -0.4 -2.5 -0.5 99 0.0 CALM 0 0 0 0 1028.5 1028.7 0.2
01/06:37am -0.2 -2.2 -0.3 99 0.0 CALM 0 0 0 0 1028.5 1028.7 0.2
01/06:30am -0.1 -2.1 -0.2 99 0.0 CALM 0 0 0 0 1028.4 1028.6 0.2
01/06:19am 0.2 -1.8 0.1 99 0.0 CALM 0 0 0 0 1028.3 1028.5 0.2
01/06:15am 0.4 -1.5 0.3 99 0.0 CALM 0 0 0 0 1028.3 1028.5 0.2
01/06:07am 1.1 -0.7 1.0 99 0.0 CALM 0 4 0 2 1028.4 1028.6 0.2
01/06:00am 0.9 -1.7 0.8 99 0.0 ENE 4 7 2 4 1028.3 1028.5 0.2
01/05:49am 0.4 -2.9 0.3 99 0.0 ENE 7 9 4 5 1028.1 1028.3 0.2
01/05:45am 0.7 -2.3 0.6 99 0.0 ENE 6 9 3 5 1028.1 1028.3 0.2
01/05:41am 0.8 -2.2 0.7 99 0.0 ENE 6 7 3 4 1028.1 1028.3 0.2
01/05:36am 0.8 -2.4 0.7 99 0.0 ENE 7 9 4 5 1028.1 1028.3 0.2
01/05:30am 1.2 -2.3 1.1 99 0.0 ENE 9 9 5 5 1028.1 1028.3 0.2
01/05:00am 1.9 -1.1 1.8 99 0.0 E 7 9 4 5 1027.9 1028.1 0.2
01/04:50am 2.1 -1.3 2.0 99 0.0 ESE 9 13 5 7 1027.9 1028.1 0.2
01/04:39am 1.8 -1.6 1.7 99 0.0 ESE 9 13 5 7 1027.9 1028.1 0.2
01/04:30am 2.0 -0.8 1.9 99 0.0 SE 6 9 3 5 1028.0 1028.2 0.2
01/04:28am 1.7 -1.2 1.6 99 0.0 SE 6 11 3 6 1028.0 1028.2 0.2
01/04:00am 1.0 -0.8 0.9 99 0.0 CALM 0 0 0 0 1027.8 1028.0 0.2
01/03:48am 1.4 -0.4 1.3 99 0.0 CALM 0 0 0 0 1027.7 1027.9 0.2
01/03:47am 1.3 -0.5 1.2 99 0.0 CALM 0 0 0 0 1027.7 1027.9 0.2
01/03:42am 1.5 -0.3 1.4 99 0.0 CALM 0 0 0 0 1027.7 1027.9 0.2
01/03:41am 1.4 -0.4 1.3 99 0.0 CALM 0 0 0 0 1027.7 1027.9 0.2
01/03:30am 1.2 -0.6 1.1 99 0.0 CALM 0 0 0 0 1027.8 1028.0 0.2
01/03:29am 1.3 -0.5 1.2 99 0.0 CALM 0 0 0 0 1027.8 1028.0 0.2
01/03:28am 1.3 -0.5 1.2 99 0.0 CALM 0 0 0 0 1027.8 1028.0 0.2
01/03:27am 1.4 -0.4 1.3 99 0.0 CALM 0 0 0 0 1027.8 1028.0 0.2
01/03:20am 1.6 -0.2 1.5 99 0.0 CALM 0 0 0 0 1027.8 1028.0 0.2
01/03:02am 1.4 -0.4 1.3 99 0.0 CALM 0 0 0 0 1028.0 1028.2 0.2
01/03:00am 1.4 -0.4 1.3 99 0.0 CALM 0 0 0 0 1028.0 1028.2 0.2
01/02:40am 1.3 -0.5 1.2 99 0.0 CALM 0 0 0 0 1028.1 1028.3 0.2
01/02:30am 1.4 -0.4 1.3 99 0.0 CALM 0 0 0 0 1028.3 1028.5 0.2
01/02:00am 1.9 0.2 1.8 99 0.0 CALM 0 0 0 0 1028.4 1028.6 0.2
01/01:30am 2.4 0.8 2.3 99 0.0 CALM 0 0 0 0 1028.4 1028.6 0.2
01/01:00am 3.4 2.0 3.3 99 0.0 CALM 0 0 0 0 1028.5 1028.7 0.2
01/12:30am 3.1 1.6 3.0 99 0.0 CALM 0 0 0 0 1028.7 1028.9 0.2
01/12:00am 4.3 3.0 4.2 99 0.0 CALM 0 0 0 0 1029.0 1029.2 0.2
 
Date/Time
EST
Temp
°C
App
Temp
°C
Dew
Point
Rel
Hum
%
Delta-T
°C
Wind Press
QNH
hPa
Press
MSL
hPa
Rain
since 9 am
mm
Dir
 
Spd
km/h
Gust
km/h
Spd
kts
Gust
kts
30/11:30pm 4.6 3.4 4.5 99 0.0 CALM 0 0 0 0 1029.1 1029.3 0.2
30/11:06pm 4.4 3.1 4.3 99 0.0 CALM 0 0 0 0 1029.0 1029.2 0.2
30/11:00pm 4.5 3.3 4.4 99 0.0 CALM 0 0 0 0 1028.9 1029.1 0.2
30/10:53pm 4.7 3.5 4.6 99 0.0 CALM 0 0 0 0 1028.9 1029.1 0.2
30/10:45pm 4.2 2.9 4.1 99 0.0 CALM 0 0 0 0 1028.9 1029.1 0.2
30/10:37pm 4.3 3.0 4.2 99 0.0 CALM 0 0 0 0 1028.9 1029.1 0.2
30/10:30pm 4.6 3.3 4.0 96 0.3 CALM 0 0 0 0 1028.9 1029.1 0.2
30/10:00pm 6.3 5.4 5.9 97 0.2 CALM 0 0 0 0 1029.0 1029.2 0.2
30/09:30pm 7.0 5.4 6.4 96 0.3 NNW 4 6 2 3 1028.9 1029.1 0.2
30/09:00pm 7.4 5.3 6.8 96 0.3 N 7 9 4 5 1029.0 1029.2 0.2
30/08:30pm 7.9 5.9 7.0 94 0.4 N 7 7 4 4 1029.0 1029.2 0.2
30/08:00pm 8.1 6.1 7.0 93 0.5 N 7 9 4 5 1028.9 1029.1 0.2
30/07:30pm 8.4 6.5 6.7 89 0.8 NNW 6 9 3 5 1028.9 1029.1 0.2
30/07:00pm 8.6 6.1 6.7 88 0.9 N 9 9 5 5 1028.7 1028.9 0.2
30/06:30pm 8.9 6.8 6.5 85 1.1 NNW 7 11 4 6 1028.4 1028.6 0.2
30/06:00pm 9.0 7.2 5.6 79 1.5 W 4 7 2 4 1028.2 1028.4 0.2
30/05:30pm 9.4 7.6 5.2 75 1.9 W 4 6 2 3 1027.8 1028.0 0.2
30/05:00pm 10.2 7.6 4.4 67 2.6 W 7 9 4 5 1027.6 1027.8 0.2
30/04:30pm 11.4 7.6 3.7 59 3.4 WSW 13 20 7 11 1027.7 1027.9 0.2
30/04:00pm 11.9 8.5 4.2 59 3.5 WNW 11 15 6 8 1027.6 1027.8 0.2
30/03:30pm 12.0 7.9 4.5 60 3.4 WNW 15 19 8 10 1027.4 1027.6 0.2
30/03:00pm 11.0 7.3 4.2 63 3.0 W 13 17 7 9 1027.5 1027.7 0.2
30/02:30pm 11.5 8.5 4.3 61 3.3 WSW 9 13 5 7 1027.6 1027.8 0.2
30/02:00pm 11.6 8.4 5.3 65 2.9 NW 11 17 6 9 1027.7 1027.9 0.2
30/01:30pm 11.8 8.7 5.7 66 2.9 NW 11 19 6 10 1027.9 1028.1 0.2
30/01:00pm 11.1 8.2 6.6 74 2.1 NNW 11 13 6 7 1028.1 1028.3 0.2
30/12:30pm 10.1 8.3 7.0 81 1.5 N 6 9 3 5 1028.5 1028.7 0.2
30/12:00pm 8.9 7.1 7.2 89 0.8 N 6 7 3 4 1029.1 1029.3 0.2
30/11:30am 8.3 6.7 8.2 99 0.0 N 6 7 3 4 1029.6 1029.8 0.2
30/11:00am 7.2 5.8 7.1 99 0.0 NNW 4 7 2 4 1029.9 1030.1 0.2
30/10:30am 6.8 6.0 6.7 99 0.0 CALM 0 0 0 0 1030.1 1030.3 0.2
30/10:00am 6.2 4.9 6.2 100 0.0 NNW 2 6 1 3 1030.2 1030.4 0.2
30/09:30am 5.8 4.1 5.8 100 0.0 NNW 4 6 2 3 1030.1 1030.3 0.2
30/09:00am 4.8 2.5 4.8 100 0.0 ENE 6 7 3 4 1030.0 1030.2 0.0
30/08:30am 3.6 1.1 3.6 100 0.0 E 6 6 3 3 1029.8 1030.0 0.0
30/08:00am 2.6 -0.1 2.6 100 0.0 E 6 7 3 4 1029.5 1029.7 0.0
30/07:30am 2.2 -0.6 2.2 100 0.0 SSW 6 7 3 4 1029.4 1029.6 0.0
30/07:00am 2.3 0.7 2.3 100 0.0 CALM 0 0 0 0 1029.1 1029.3 0.0
30/06:30am 1.4 -0.4 1.4 100 0.0 CALM 0 0 0 0 1029.0 1029.2 0.0
30/06:00am 1.6 -0.1 1.6 100 0.0 CALM 0 0 0 0 1028.7 1028.9 0.0
30/05:30am 0.6 -1.3 0.5 99 0.0 CALM 0 0 0 0 1028.5 1028.7 0.0
30/05:00am 0.3 -1.7 0.2 99 0.0 CALM 0 0 0 0 1028.2 1028.4 0.0
30/04:45am 0.8 -1.1 0.7 99 0.0 CALM 0 0 0 0 1028.4 1028.6 0.0
30/04:30am 0.9 -1.0 0.8 99 0.0 CALM 0 0 0 0 1028.5 1028.7 0.0
30/04:22am 0.1 -1.9 0.0 99 0.0 CALM 0 0 0 0 1028.5 1028.7 0.0
30/04:11am -0.3 -2.3 -0.4 99 0.0 CALM 0 0 0 0 1028.7 1028.9 0.0
30/04:09am -0.1 -2.1 -0.2 99 0.0 CALM 0 0 0 0 1028.6 1028.8 0.0
30/04:01am 1.0 -0.8 0.9 99 0.0 CALM 0 0 0 0 1028.5 1028.7 0.0
30/04:00am 0.8 -1.1 0.7 99 0.0 CALM 0 0 0 0 1028.6 1028.8 0.0
30/03:31am 0.0 -2.0 -0.1 99 0.0 CALM 0 0 0 0 1028.7 1028.9 0.0
30/03:30am 0.1 -1.9 0.0 99 0.0 CALM 0 0 0 0 1028.7 1028.9 0.0
30/03:25am -0.1 -2.1 -0.2 99 0.0 CALM 0 0 0 0 1028.8 1029.0 0.0
30/03:03am 0.0 -2.0 -0.1 99 0.0 CALM 0 0 0 0 1028.8 1029.0 0.0
30/03:00am 0.4 -1.5 0.3 99 0.0 CALM 0 0 0 0 1028.8 1029.0 0.0
30/02:30am 0.7 -1.2 0.6 99 0.0 CALM 0 0 0 0 1028.7 1028.9 0.0
30/02:00am 1.5 -0.3 1.4 99 0.0 CALM 0 0 0 0 1028.7 1028.9 0.0
30/01:30am 2.2 -0.2 2.1 99 0.0 N 4 7 2 4 1028.8 1029.0 0.0
30/01:07am 1.4 -1.7 1.3 99 0.0 N 7 9 4 5 1029.0 1029.2 0.0
30/01:00am 1.2 -1.4 1.1 99 0.0 N 4 9 2 5 1029.1 1029.3 0.0
30/12:47am 1.7 0.0 1.6 99 0.0 CALM 0 0 0 0 1029.2 1029.4 0.0
30/12:30am 1.6 -0.2 1.5 99 0.0 CALM 0 0 0 0 1029.3 1029.5 0.0
30/12:17am 1.3 -0.5 1.2 99 0.0 CALM 0 0 0 0 1029.3 1029.5 0.0
30/12:11am 1.1 -0.7 1.0 99 0.0 CALM 0 0 0 0 1029.3 1029.5 0.0
30/12:09am 1.1 -0.7 1.0 99 0.0 CALM 0 0 0 0 1029.3 1029.5 0.0
30/12:08am 1.0 -0.8 0.9 99 0.0 CALM 0 0 0 0 1029.3 1029.5 0.0
30/12:06am 0.9 -1.0 0.8 99 0.0 CALM 0 0 0 0 1029.3 1029.5 0.0
30/12:00am 0.8 -1.1 0.7 99 0.0 CALM 0 0 0 0 1029.3 1029.5 0.0
 
Date/Time
EST
Temp
°C
App
Temp
°C
Dew
Point
Rel
Hum
%
Delta-T
°C
Wind Press
QNH
hPa
Press
MSL
hPa
Rain
since 9 am
mm
Dir
 
Spd
km/h
Gust
km/h
Spd
kts
Gust
kts
29/11:46pm 1.0 -0.8 0.9 99 0.0 CALM 0 0 0 0 1029.2 1029.4 0.0
29/11:30pm 1.4 -0.4 1.3 99 0.0 CALM 0 0 0 0 1029.0 1029.2 0.0
29/11:00pm 1.4 -0.8 1.3 99 0.0 W 2 6 1 3 1029.1 1029.3 0.0
29/10:30pm 1.8 -1.2 1.7 99 0.0 WNW 7 13 4 7 1029.0 1029.2 0.0
29/10:00pm 4.1 2.8 4.0 99 0.0 CALM 0 0 0 0 1029.2 1029.4 0.0
29/09:30pm 3.4 2.0 3.3 99 0.0 CALM 0 0 0 0 1029.6 1029.8 0.0
29/09:00pm 3.5 0.9 3.4 99 0.0 ESE 6 7 3 4 1029.8 1030.0 0.0
29/08:30pm 3.7 1.0 3.6 99 0.0 ESE 7 7 4 4 1029.8 1030.0 0.0
29/08:00pm 3.2 1.7 3.1 99 0.0 CALM 0 4 0 2 1029.8 1030.0 0.0
29/07:30pm 3.8 2.4 3.7 99 0.0 CALM 0 0 0 0 1029.8 1030.0 0.0
29/07:00pm 3.5 0.9 3.2 98 0.1 SSW 6 6 3 3 1029.9 1030.1 0.0
29/06:30pm 4.1 1.3 2.9 92 0.5 S 7 9 4 5 1029.9 1030.1 0.0
29/06:00pm 6.3 3.5 5.1 92 0.5 SSW 9 9 5 5 1029.8 1030.0 0.0
29/05:30pm 7.2 4.7 5.0 86 1.0 SW 7 9 4 5 1029.8 1030.0 0.0
29/05:00pm 8.3 5.9 5.2 81 1.4 W 7 9 4 5 1029.9 1030.1 0.0
29/04:30pm 9.8 7.4 5.2 73 2.1 WNW 7 9 4 5 1030.0 1030.2 0.0
29/04:00pm 10.6 8.3 5.8 72 2.2 SW 7 11 4 6 1030.0 1030.2 0.0
29/03:30pm 10.4 7.2 5.0 69 2.5 W 11 15 6 8 1029.9 1030.1 0.0
29/03:00pm 11.0 8.5 4.9 66 2.8 WSW 7 17 4 9 1029.7 1029.9 0.0
29/02:30pm 10.5 7.7 5.1 69 2.5 WNW 9 15 5 8 1029.8 1030.0 0.0
29/02:00pm 9.9 7.5 5.1 72 2.2 WNW 7 17 4 9 1030.1 1030.3 0.0
29/01:30pm 10.5 7.8 5.5 71 2.3 NW 9 17 5 9 1030.1 1030.3 0.0
29/01:00pm 9.5 7.1 5.1 74 2.0 W 7 13 4 7 1030.7 1031.0 0.0
29/12:30pm 9.0 6.6 5.4 78 1.6 WNW 7 11 4 6 1031.1 1031.4 0.0
29/12:00pm 8.8 7.8 5.4 79 1.5 CALM 0 0 0 0 1031.7 1031.9 0.0
29/11:30am 8.4 7.0 5.3 81 1.4 NNW 2 7 1 4 1032.4 1032.6 0.0
29/11:00am 7.9 6.6 6.2 89 0.8 E 2 6 1 3 1032.5 1032.7 0.0

Other Formats:

Comma delimited format used in spreadsheet applications
http://www.bom.gov.au/fwo/IDN60801/IDN60801.95704.axf

JavaScript Object Notation format (JSON) in row-major order
http://www.bom.gov.au/fwo/IDN60801/IDN60801.95704.json